sensor_id;sensor_type;location;lat;lon;timestamp;temperature;humidity
38359;DHT22;42072;48.044;14.416;2023-12-20T00:02:18;-1.10;99.90
38359;DHT22;42072;48.044;14.416;2023-12-20T00:04:45;-1.10;99.90
38359;DHT22;42072;48.044;14.416;2023-12-20T00:07:12;-1.10;99.90
38359;DHT22;42072;48.044;14.416;2023-12-20T00:09:40;-1.20;99.90
38359;DHT22;42072;48.044;14.416;2023-12-20T00:12:07;-1.20;99.90
38359;DHT22;42072;48.044;14.416;2023-12-20T00:14:34;-1.10;99.90
38359;DHT22;42072;48.044;14.416;2023-12-20T00:17:01;-1.10;99.90
38359;DHT22;42072;48.044;14.416;2023-12-20T00:19:28;-1.10;99.90
38359;DHT22;42072;48.044;14.416;2023-12-20T00:21:56;-1.10;99.90
38359;DHT22;42072;48.044;14.416;2023-12-20T00:24:23;-1.00;99.90
38359;DHT22;42072;48.044;14.416;2023-12-20T00:26:50;-1.00;99.90
38359;DHT22;42072;48.044;14.416;2023-12-20T00:29:17;-0.90;99.90
38359;DHT22;42072;48.044;14.416;2023-12-20T00:31:45;-0.90;99.90
38359;DHT22;42072;48.044;14.416;2023-12-20T00:34:12;-0.80;99.90
38359;DHT22;42072;48.044;14.416;2023-12-20T00:36:40;-0.80;99.90
38359;DHT22;42072;48.044;14.416;2023-12-20T00:39:07;-0.80;99.90
38359;DHT22;42072;48.044;14.416;2023-12-20T00:41:34;-0.70;99.90
38359;DHT22;42072;48.044;14.416;2023-12-20T00:44:01;-0.70;99.90
38359;DHT22;42072;48.044;14.416;2023-12-20T00:46:28;-0.60;99.90
38359;DHT22;42072;48.044;14.416;2023-12-20T00:48:55;-0.60;99.90
38359;DHT22;42072;48.044;14.416;2023-12-20T00:51:22;-0.50;99.90
38359;DHT22;42072;48.044;14.416;2023-12-20T00:53:50;-0.50;99.90
38359;DHT22;42072;48.044;14.416;2023-12-20T00:56:21;-0.50;99.90
38359;DHT22;42072;48.044;14.416;2023-12-20T00:58:48;-0.40;99.90
38359;DHT22;42072;48.044;14.416;2023-12-20T01:01:15;-0.30;99.90
38359;DHT22;42072;48.044;14.416;2023-12-20T01:03:43;-0.20;99.90
38359;DHT22;42072;48.044;14.416;2023-12-20T01:06:10;-0.10;99.90
38359;DHT22;42072;48.044;14.416;2023-12-20T01:08:37;0.00;99.90
38359;DHT22;42072;48.044;14.416;2023-12-20T01:11:05;0.00;99.90
38359;DHT22;42072;48.044;14.416;2023-12-20T01:13:32;0.10;99.90
38359;DHT22;42072;48.044;14.416;2023-12-20T01:15:59;0.10;99.90
38359;DHT22;42072;48.044;14.416;2023-12-20T01:18:27;0.20;99.90
38359;DHT22;42072;48.044;14.416;2023-12-20T01:20:54;0.20;99.90
38359;DHT22;42072;48.044;14.416;2023-12-20T01:23:22;0.30;99.90
38359;DHT22;42072;48.044;14.416;2023-12-20T01:25:49;0.30;99.90
38359;DHT22;42072;48.044;14.416;2023-12-20T01:28:16;0.30;99.90
38359;DHT22;42072;48.044;14.416;2023-12-20T01:30:43;0.40;99.90
38359;DHT22;42072;48.044;14.416;2023-12-20T01:33:10;0.40;99.90
38359;DHT22;42072;48.044;14.416;2023-12-20T01:35:37;0.40;99.90
38359;DHT22;42072;48.044;14.416;2023-12-20T01:38:04;0.40;99.90
38359;DHT22;42072;48.044;14.416;2023-12-20T01:40:31;0.40;99.90
38359;DHT22;42072;48.044;14.416;2023-12-20T01:43:03;0.40;99.90
38359;DHT22;42072;48.044;14.416;2023-12-20T01:45:32;0.50;99.90
38359;DHT22;42072;48.044;14.416;2023-12-20T01:47:59;0.50;99.90
38359;DHT22;42072;48.044;14.416;2023-12-20T01:50:27;0.50;99.90
38359;DHT22;42072;48.044;14.416;2023-12-20T01:52:55;0.40;99.90
38359;DHT22;42072;48.044;14.416;2023-12-20T01:55:24;0.40;99.90
38359;DHT22;42072;48.044;14.416;2023-12-20T01:57:52;0.30;99.90
38359;DHT22;42072;48.044;14.416;2023-12-20T02:00:20;0.20;99.90
38359;DHT22;42072;48.044;14.416;2023-12-20T02:02:50;0.20;99.90
38359;DHT22;42072;48.044;14.416;2023-12-20T02:05:17;0.20;99.90
38359;DHT22;42072;48.044;14.416;2023-12-20T02:07:45;0.20;99.90
38359;DHT22;42072;48.044;14.416;2023-12-20T02:10:12;0.20;99.90
38359;DHT22;42072;48.044;14.416;2023-12-20T02:12:40;0.20;99.90
38359;DHT22;42072;48.044;14.416;2023-12-20T02:15:07;0.20;99.90
38359;DHT22;42072;48.044;14.416;2023-12-20T02:17:34;0.30;99.90
38359;DHT22;42072;48.044;14.416;2023-12-20T02:20:02;0.30;99.90
38359;DHT22;42072;48.044;14.416;2023-12-20T02:22:29;0.30;99.90
38359;DHT22;42072;48.044;14.416;2023-12-20T02:24:57;0.20;99.90
38359;DHT22;42072;48.044;14.416;2023-12-20T02:27:24;0.30;99.90
38359;DHT22;42072;48.044;14.416;2023-12-20T02:29:51;0.20;99.90
38359;DHT22;42072;48.044;14.416;2023-12-20T02:32:19;0.20;99.90
38359;DHT22;42072;48.044;14.416;2023-12-20T02:34:47;0.20;99.90
38359;DHT22;42072;48.044;14.416;2023-12-20T02:37:15;0.20;99.90
38359;DHT22;42072;48.044;14.416;2023-12-20T02:39:42;0.30;99.90
38359;DHT22;42072;48.044;14.416;2023-12-20T02:42:10;0.30;99.90
38359;DHT22;42072;48.044;14.416;2023-12-20T02:44:37;0.30;99.90
38359;DHT22;42072;48.044;14.416;2023-12-20T02:47:04;0.30;99.90
38359;DHT22;42072;48.044;14.416;2023-12-20T02:49:31;0.60;99.90
38359;DHT22;42072;48.044;14.416;2023-12-20T02:51:59;0.80;99.90
38359;DHT22;42072;48.044;14.416;2023-12-20T02:54:26;1.00;99.90
38359;DHT22;42072;48.044;14.416;2023-12-20T02:56:53;1.00;99.90
38359;DHT22;42072;48.044;14.416;2023-12-20T02:59:20;0.90;99.90
38359;DHT22;42072;48.044;14.416;2023-12-20T03:01:47;0.80;99.90
38359;DHT22;42072;48.044;14.416;2023-12-20T03:04:14;0.80;99.90
38359;DHT22;42072;48.044;14.416;2023-12-20T03:06:41;0.90;99.90
38359;DHT22;42072;48.044;14.416;2023-12-20T03:09:08;0.80;99.90
38359;DHT22;42072;48.044;14.416;2023-12-20T03:11:36;0.70;99.90
38359;DHT22;42072;48.044;14.416;2023-12-20T03:14:03;0.60;99.30
38359;DHT22;42072;48.044;14.416;2023-12-20T03:16:30;0.50;81.20
38359;DHT22;42072;48.044;14.416;2023-12-20T03:19:01;0.30;58.70
38359;DHT22;42072;48.044;14.416;2023-12-20T03:21:28;0.30;42.60
38359;DHT22;42072;48.044;14.416;2023-12-20T03:23:55;0.30;45.60
38359;DHT22;42072;48.044;14.416;2023-12-20T03:26:22;0.20;45.80
38359;DHT22;42072;48.044;14.416;2023-12-20T03:28:50;0.30;49.20
38359;DHT22;42072;48.044;14.416;2023-12-20T03:31:17;0.30;42.80
38359;DHT22;42072;48.044;14.416;2023-12-20T03:33:44;0.30;34.10
38359;DHT22;42072;48.044;14.416;2023-12-20T03:36:11;0.40;40.60
38359;DHT22;42072;48.044;14.416;2023-12-20T03:38:38;0.40;27.80
38359;DHT22;42072;48.044;14.416;2023-12-20T03:41:07;0.50;13.60
38359;DHT22;42072;48.044;14.416;2023-12-20T03:43:34;0.40;1.00
38359;DHT22;42072;48.044;14.416;2023-12-20T03:46:01;0.40;1.00
38359;DHT22;42072;48.044;14.416;2023-12-20T03:48:31;0.40;1.00
38359;DHT22;42072;48.044;14.416;2023-12-20T03:50:58;0.50;1.00
38359;DHT22;42072;48.044;14.416;2023-12-20T03:53:25;0.50;1.00
38359;DHT22;42072;48.044;14.416;2023-12-20T03:55:52;0.60;1.00
38359;DHT22;42072;48.044;14.416;2023-12-20T03:58:20;0.50;1.00
38359;DHT22;42072;48.044;14.416;2023-12-20T04:00:47;0.60;1.00
38359;DHT22;42072;48.044;14.416;2023-12-20T04:03:14;0.70;1.00
38359;DHT22;42072;48.044;14.416;2023-12-20T04:05:42;0.70;2.10
38359;DHT22;42072;48.044;14.416;2023-12-20T04:08:09;0.70;1.00
38359;DHT22;42072;48.044;14.416;2023-12-20T04:10:36;0.80;1.00
38359;DHT22;42072;48.044;14.416;2023-12-20T04:13:04;0.80;1.00
38359;DHT22;42072;48.044;14.416;2023-12-20T04:15:31;0.80;1.00
38359;DHT22;42072;48.044;14.416;2023-12-20T04:17:58;0.90;1.00
38359;DHT22;42072;48.044;14.416;2023-12-20T04:20:26;0.90;1.00
38359;DHT22;42072;48.044;14.416;2023-12-20T04:22:53;0.90;1.00
38359;DHT22;42072;48.044;14.416;2023-12-20T04:25:20;1.00;1.00
38359;DHT22;42072;48.044;14.416;2023-12-20T04:27:48;1.00;1.00
38359;DHT22;42072;48.044;14.416;2023-12-20T04:30:15;1.00;1.00
38359;DHT22;42072;48.044;14.416;2023-12-20T04:32:42;1.00;1.00
38359;DHT22;42072;48.044;14.416;2023-12-20T04:35:10;1.00;1.00
38359;DHT22;42072;48.044;14.416;2023-12-20T04:37:37;1.00;1.00
38359;DHT22;42072;48.044;14.416;2023-12-20T04:40:04;1.00;1.00
38359;DHT22;42072;48.044;14.416;2023-12-20T04:42:32;1.00;1.00
38359;DHT22;42072;48.044;14.416;2023-12-20T04:44:59;1.10;1.00
38359;DHT22;42072;48.044;14.416;2023-12-20T04:47:26;1.10;1.00
38359;DHT22;42072;48.044;14.416;2023-12-20T04:49:54;1.20;1.00
38359;DHT22;42072;48.044;14.416;2023-12-20T04:52:21;1.20;1.00
38359;DHT22;42072;48.044;14.416;2023-12-20T04:54:48;1.20;1.00
38359;DHT22;42072;48.044;14.416;2023-12-20T04:57:16;1.30;1.00
38359;DHT22;42072;48.044;14.416;2023-12-20T04:59:43;1.20;99.90
38359;DHT22;42072;48.044;14.416;2023-12-20T05:02:10;1.30;99.90
38359;DHT22;42072;48.044;14.416;2023-12-20T05:04:37;1.30;99.90
38359;DHT22;42072;48.044;14.416;2023-12-20T05:07:04;1.20;99.90
38359;DHT22;42072;48.044;14.416;2023-12-20T05:09:32;1.30;99.90
38359;DHT22;42072;48.044;14.416;2023-12-20T05:12:00;1.30;99.90
38359;DHT22;42072;48.044;14.416;2023-12-20T05:14:27;1.30;99.90
38359;DHT22;42072;48.044;14.416;2023-12-20T05:16:54;1.30;99.90
38359;DHT22;42072;48.044;14.416;2023-12-20T05:19:21;1.40;99.90
38359;DHT22;42072;48.044;14.416;2023-12-20T05:21:49;1.40;99.90
38359;DHT22;42072;48.044;14.416;2023-12-20T05:24:16;1.40;99.90
38359;DHT22;42072;48.044;14.416;2023-12-20T05:26:43;1.40;99.90
38359;DHT22;42072;48.044;14.416;2023-12-20T05:29:10;1.40;99.90
38359;DHT22;42072;48.044;14.416;2023-12-20T05:31:37;1.40;99.90
38359;DHT22;42072;48.044;14.416;2023-12-20T05:34:05;1.40;99.90
38359;DHT22;42072;48.044;14.416;2023-12-20T05:36:32;1.40;99.90
38359;DHT22;42072;48.044;14.416;2023-12-20T05:38:59;1.40;99.90
38359;DHT22;42072;48.044;14.416;2023-12-20T05:41:26;1.40;99.90
38359;DHT22;42072;48.044;14.416;2023-12-20T05:43:53;1.50;99.90
38359;DHT22;42072;48.044;14.416;2023-12-20T05:46:20;1.50;99.90
38359;DHT22;42072;48.044;14.416;2023-12-20T05:48:48;1.40;99.90
38359;DHT22;42072;48.044;14.416;2023-12-20T05:51:15;1.50;99.90
38359;DHT22;42072;48.044;14.416;2023-12-20T05:53:43;1.50;99.90
38359;DHT22;42072;48.044;14.416;2023-12-20T05:56:11;1.50;99.90
38359;DHT22;42072;48.044;14.416;2023-12-20T05:58:38;1.50;99.90
38359;DHT22;42072;48.044;14.416;2023-12-20T06:01:06;1.50;99.90
38359;DHT22;42072;48.044;14.416;2023-12-20T06:03:35;1.50;99.90
38359;DHT22;42072;48.044;14.416;2023-12-20T06:06:06;1.50;99.90
38359;DHT22;42072;48.044;14.416;2023-12-20T06:08:42;1.50;99.90
38359;DHT22;42072;48.044;14.416;2023-12-20T06:11:11;1.50;99.90
38359;DHT22;42072;48.044;14.416;2023-12-20T06:13:38;1.60;99.90
38359;DHT22;42072;48.044;14.416;2023-12-20T06:16:05;1.60;99.90
38359;DHT22;42072;48.044;14.416;2023-12-20T06:18:34;1.70;99.90
38359;DHT22;42072;48.044;14.416;2023-12-20T06:21:03;1.80;99.90
38359;DHT22;42072;48.044;14.416;2023-12-20T06:23:30;1.80;99.90
38359;DHT22;42072;48.044;14.416;2023-12-20T06:25:57;1.90;99.90
38359;DHT22;42072;48.044;14.416;2023-12-20T06:28:24;2.00;99.90
38359;DHT22;42072;48.044;14.416;2023-12-20T06:30:52;1.90;99.90
38359;DHT22;42072;48.044;14.416;2023-12-20T06:33:21;2.00;99.90
38359;DHT22;42072;48.044;14.416;2023-12-20T06:35:49;2.00;99.90
38359;DHT22;42072;48.044;14.416;2023-12-20T06:38:17;2.10;99.90
38359;DHT22;42072;48.044;14.416;2023-12-20T06:40:44;2.20;99.90
38359;DHT22;42072;48.044;14.416;2023-12-20T06:43:13;2.20;99.90
38359;DHT22;42072;48.044;14.416;2023-12-20T06:45:58;2.30;99.90
38359;DHT22;42072;48.044;14.416;2023-12-20T06:48:25;2.40;99.90
38359;DHT22;42072;48.044;14.416;2023-12-20T06:50:53;2.50;99.90
38359;DHT22;42072;48.044;14.416;2023-12-20T06:53:20;2.40;97.80
38359;DHT22;42072;48.044;14.416;2023-12-20T06:55:47;2.40;83.20
38359;DHT22;42072;48.044;14.416;2023-12-20T06:58:14;2.80;1.00
38359;DHT22;42072;48.044;14.416;2023-12-20T07:00:41;2.90;1.00
38359;DHT22;42072;48.044;14.416;2023-12-20T07:03:09;3.00;1.00
38359;DHT22;42072;48.044;14.416;2023-12-20T07:05:37;3.10;1.00
38359;DHT22;42072;48.044;14.416;2023-12-20T07:08:05;3.80;1.00
38359;DHT22;42072;48.044;14.416;2023-12-20T07:10:32;4.50;1.00
38359;DHT22;42072;48.044;14.416;2023-12-20T07:13:00;5.40;99.90
38359;DHT22;42072;48.044;14.416;2023-12-20T07:15:27;5.80;99.90
38359;DHT22;42072;48.044;14.416;2023-12-20T07:17:56;6.00;99.90
38359;DHT22;42072;48.044;14.416;2023-12-20T07:20:23;6.00;99.90
38359;DHT22;42072;48.044;14.416;2023-12-20T07:22:51;6.10;99.90
38359;DHT22;42072;48.044;14.416;2023-12-20T07:25:18;6.10;99.90
38359;DHT22;42072;48.044;14.416;2023-12-20T07:27:47;6.10;99.90
38359;DHT22;42072;48.044;14.416;2023-12-20T07:30:15;6.10;99.90
38359;DHT22;42072;48.044;14.416;2023-12-20T07:32:42;6.10;99.90
38359;DHT22;42072;48.044;14.416;2023-12-20T07:35:09;6.10;99.90
38359;DHT22;42072;48.044;14.416;2023-12-20T07:37:36;6.10;99.90
38359;DHT22;42072;48.044;14.416;2023-12-20T07:40:04;6.00;99.90
38359;DHT22;42072;48.044;14.416;2023-12-20T07:42:31;6.00;99.90
38359;DHT22;42072;48.044;14.416;2023-12-20T07:44:59;6.00;99.90
38359;DHT22;42072;48.044;14.416;2023-12-20T07:47:26;5.90;99.90
38359;DHT22;42072;48.044;14.416;2023-12-20T07:49:53;5.80;99.90
38359;DHT22;42072;48.044;14.416;2023-12-20T07:52:21;5.80;99.90
38359;DHT22;42072;48.044;14.416;2023-12-20T07:54:49;5.80;99.90
38359;DHT22;42072;48.044;14.416;2023-12-20T07:57:16;5.70;99.90
38359;DHT22;42072;48.044;14.416;2023-12-20T07:59:43;5.70;99.90
38359;DHT22;42072;48.044;14.416;2023-12-20T08:02:11;5.60;99.90
38359;DHT22;42072;48.044;14.416;2023-12-20T08:04:38;5.50;99.90
38359;DHT22;42072;48.044;14.416;2023-12-20T08:07:05;5.50;99.90
38359;DHT22;42072;48.044;14.416;2023-12-20T08:09:32;5.40;99.90
38359;DHT22;42072;48.044;14.416;2023-12-20T08:12:01;5.40;99.90
38359;DHT22;42072;48.044;14.416;2023-12-20T08:14:28;5.30;99.90
38359;DHT22;42072;48.044;14.416;2023-12-20T08:16:55;5.20;1.00
38359;DHT22;42072;48.044;14.416;2023-12-20T08:19:22;5.20;1.00
38359;DHT22;42072;48.044;14.416;2023-12-20T08:21:49;5.20;1.00
38359;DHT22;42072;48.044;14.416;2023-12-20T08:24:16;5.20;1.00
38359;DHT22;42072;48.044;14.416;2023-12-20T08:26:43;5.10;1.00
38359;DHT22;42072;48.044;14.416;2023-12-20T08:29:12;5.10;1.00
38359;DHT22;42072;48.044;14.416;2023-12-20T08:31:39;5.00;1.00
38359;DHT22;42072;48.044;14.416;2023-12-20T08:34:06;5.00;1.00
38359;DHT22;42072;48.044;14.416;2023-12-20T08:36:35;5.00;1.00
38359;DHT22;42072;48.044;14.416;2023-12-20T08:39:02;5.00;1.00
38359;DHT22;42072;48.044;14.416;2023-12-20T08:41:30;4.90;1.00
38359;DHT22;42072;48.044;14.416;2023-12-20T08:43:57;5.00;1.00
38359;DHT22;42072;48.044;14.416;2023-12-20T08:46:24;5.00;1.00
38359;DHT22;42072;48.044;14.416;2023-12-20T08:48:52;5.00;1.00
38359;DHT22;42072;48.044;14.416;2023-12-20T08:51:19;5.00;1.00
38359;DHT22;42072;48.044;14.416;2023-12-20T08:53:48;5.00;1.00
38359;DHT22;42072;48.044;14.416;2023-12-20T08:56:16;5.10;1.00
38359;DHT22;42072;48.044;14.416;2023-12-20T08:58:45;5.10;1.00
38359;DHT22;42072;48.044;14.416;2023-12-20T09:01:12;5.00;1.00
38359;DHT22;42072;48.044;14.416;2023-12-20T09:03:40;5.10;1.00
38359;DHT22;42072;48.044;14.416;2023-12-20T09:06:07;5.00;1.00
38359;DHT22;42072;48.044;14.416;2023-12-20T09:08:34;5.10;2.80
38359;DHT22;42072;48.044;14.416;2023-12-20T09:11:01;5.10;1.00
38359;DHT22;42072;48.044;14.416;2023-12-20T09:13:28;5.10;1.00
38359;DHT22;42072;48.044;14.416;2023-12-20T09:15:56;5.10;1.00
38359;DHT22;42072;48.044;14.416;2023-12-20T09:18:23;5.10;1.00
38359;DHT22;42072;48.044;14.416;2023-12-20T09:20:50;5.10;1.00
38359;DHT22;42072;48.044;14.416;2023-12-20T09:23:17;5.10;1.00
38359;DHT22;42072;48.044;14.416;2023-12-20T09:25:45;5.20;1.00
38359;DHT22;42072;48.044;14.416;2023-12-20T09:28:12;5.10;1.00
38359;DHT22;42072;48.044;14.416;2023-12-20T09:30:39;5.10;1.10
38359;DHT22;42072;48.044;14.416;2023-12-20T09:33:07;5.10;10.60
38359;DHT22;42072;48.044;14.416;2023-12-20T09:35:35;5.10;15.20
38359;DHT22;42072;48.044;14.416;2023-12-20T09:38:02;5.20;22.50
38359;DHT22;42072;48.044;14.416;2023-12-20T09:40:29;5.20;22.90
38359;DHT22;42072;48.044;14.416;2023-12-20T09:43:05;5.30;22.50
38359;DHT22;42072;48.044;14.416;2023-12-20T09:45:35;5.30;13.40
38359;DHT22;42072;48.044;14.416;2023-12-20T09:48:02;5.40;8.00
38359;DHT22;42072;48.044;14.416;2023-12-20T09:50:32;5.30;1.00
38359;DHT22;42072;48.044;14.416;2023-12-20T09:53:00;5.40;1.00
38359;DHT22;42072;48.044;14.416;2023-12-20T09:55:28;5.40;3.60
38359;DHT22;42072;48.044;14.416;2023-12-20T09:57:57;5.40;2.90
38359;DHT22;42072;48.044;14.416;2023-12-20T10:00:24;5.50;4.10
38359;DHT22;42072;48.044;14.416;2023-12-20T10:02:58;5.70;1.00
38359;DHT22;42072;48.044;14.416;2023-12-20T10:05:34;5.80;1.00
38359;DHT22;42072;48.044;14.416;2023-12-20T10:08:02;6.00;1.00
38359;DHT22;42072;48.044;14.416;2023-12-20T10:10:30;6.00;1.00
38359;DHT22;42072;48.044;14.416;2023-12-20T10:13:11;6.10;1.00
38359;DHT22;42072;48.044;14.416;2023-12-20T10:15:39;6.30;1.00
38359;DHT22;42072;48.044;14.416;2023-12-20T10:18:09;6.30;1.00
38359;DHT22;42072;48.044;14.416;2023-12-20T10:20:36;6.30;1.00
38359;DHT22;42072;48.044;14.416;2023-12-20T10:23:03;6.40;1.00
38359;DHT22;42072;48.044;14.416;2023-12-20T10:25:30;6.50;1.00
38359;DHT22;42072;48.044;14.416;2023-12-20T10:28:11;6.50;1.00
38359;DHT22;42072;48.044;14.416;2023-12-20T10:30:39;6.50;1.00
38359;DHT22;42072;48.044;14.416;2023-12-20T10:33:07;6.50;1.00
38359;DHT22;42072;48.044;14.416;2023-12-20T10:35:35;6.50;1.00
38359;DHT22;42072;48.044;14.416;2023-12-20T10:38:04;6.60;1.00
38359;DHT22;42072;48.044;14.416;2023-12-20T10:40:35;6.70;1.00
38359;DHT22;42072;48.044;14.416;2023-12-20T10:43:05;6.80;99.90
38359;DHT22;42072;48.044;14.416;2023-12-20T10:45:33;6.90;99.90
38359;DHT22;42072;48.044;14.416;2023-12-20T10:48:01;7.00;99.90
38359;DHT22;42072;48.044;14.416;2023-12-20T10:50:29;7.10;99.90
38359;DHT22;42072;48.044;14.416;2023-12-20T10:52:58;7.20;99.90
38359;DHT22;42072;48.044;14.416;2023-12-20T10:55:26;7.20;99.90
38359;DHT22;42072;48.044;14.416;2023-12-20T10:57:54;7.20;99.90
38359;DHT22;42072;48.044;14.416;2023-12-20T11:00:28;7.20;99.90
38359;DHT22;42072;48.044;14.416;2023-12-20T11:02:57;7.20;99.90
38359;DHT22;42072;48.044;14.416;2023-12-20T11:06:01;7.30;99.90
38359;DHT22;42072;48.044;14.416;2023-12-20T11:08:28;7.30;99.90
38359;DHT22;42072;48.044;14.416;2023-12-20T11:11:02;7.30;99.90
38359;DHT22;42072;48.044;14.416;2023-12-20T11:16:01;7.10;99.90
38359;DHT22;42072;48.044;14.416;2023-12-20T11:18:30;7.10;99.90
38359;DHT22;42072;48.044;14.416;2023-12-20T11:21:00;7.10;99.90
38359;DHT22;42072;48.044;14.416;2023-12-20T11:23:29;7.10;99.90
38359;DHT22;42072;48.044;14.416;2023-12-20T11:25:57;7.20;99.90
38359;DHT22;42072;48.044;14.416;2023-12-20T11:28:27;7.20;99.90
38359;DHT22;42072;48.044;14.416;2023-12-20T11:30:54;7.20;99.90
38359;DHT22;42072;48.044;14.416;2023-12-20T11:33:23;7.30;99.90
38359;DHT22;42072;48.044;14.416;2023-12-20T11:35:55;7.30;99.90
38359;DHT22;42072;48.044;14.416;2023-12-20T11:38:23;7.30;99.90
38359;DHT22;42072;48.044;14.416;2023-12-20T11:40:51;7.30;99.90
38359;DHT22;42072;48.044;14.416;2023-12-20T11:43:39;7.30;99.90
38359;DHT22;42072;48.044;14.416;2023-12-20T11:46:07;7.30;99.90
38359;DHT22;42072;48.044;14.416;2023-12-20T11:48:37;7.20;99.90
38359;DHT22;42072;48.044;14.416;2023-12-20T11:51:10;7.10;99.90
38359;DHT22;42072;48.044;14.416;2023-12-20T11:53:38;7.10;99.90
38359;DHT22;42072;48.044;14.416;2023-12-20T11:56:06;7.00;99.90
38359;DHT22;42072;48.044;14.416;2023-12-20T11:58:34;7.00;99.90
38359;DHT22;42072;48.044;14.416;2023-12-20T12:01:01;6.90;99.90
38359;DHT22;42072;48.044;14.416;2023-12-20T12:03:31;6.90;99.90
38359;DHT22;42072;48.044;14.416;2023-12-20T12:05:59;6.80;99.90
38359;DHT22;42072;48.044;14.416;2023-12-20T12:08:27;6.80;99.90
38359;DHT22;42072;48.044;14.416;2023-12-20T12:10:54;6.70;99.90
38359;DHT22;42072;48.044;14.416;2023-12-20T12:13:21;6.70;99.90
38359;DHT22;42072;48.044;14.416;2023-12-20T12:15:48;6.70;99.90
38359;DHT22;42072;48.044;14.416;2023-12-20T12:18:16;6.80;99.90
38359;DHT22;42072;48.044;14.416;2023-12-20T12:20:44;6.80;99.90
38359;DHT22;42072;48.044;14.416;2023-12-20T12:23:11;6.60;99.90
38359;DHT22;42072;48.044;14.416;2023-12-20T12:25:38;6.60;99.90
38359;DHT22;42072;48.044;14.416;2023-12-20T12:28:09;6.60;99.90
38359;DHT22;42072;48.044;14.416;2023-12-20T12:30:37;6.50;99.90
38359;DHT22;42072;48.044;14.416;2023-12-20T12:33:12;6.40;99.90
38359;DHT22;42072;48.044;14.416;2023-12-20T12:35:40;6.40;99.90
38359;DHT22;42072;48.044;14.416;2023-12-20T12:38:07;6.30;99.90
38359;DHT22;42072;48.044;14.416;2023-12-20T12:40:35;6.30;99.90
38359;DHT22;42072;48.044;14.416;2023-12-20T12:43:05;6.30;99.90
38359;DHT22;42072;48.044;14.416;2023-12-20T12:45:33;6.40;99.90
38359;DHT22;42072;48.044;14.416;2023-12-20T12:48:01;6.40;99.90
38359;DHT22;42072;48.044;14.416;2023-12-20T12:50:28;6.40;99.90
38359;DHT22;42072;48.044;14.416;2023-12-20T12:52:55;6.40;99.90
38359;DHT22;42072;48.044;14.416;2023-12-20T12:55:23;6.40;99.90
38359;DHT22;42072;48.044;14.416;2023-12-20T12:57:50;6.40;99.90
38359;DHT22;42072;48.044;14.416;2023-12-20T13:00:17;6.40;99.90
38359;DHT22;42072;48.044;14.416;2023-12-20T13:02:44;6.40;99.90
38359;DHT22;42072;48.044;14.416;2023-12-20T13:05:11;6.40;99.90
38359;DHT22;42072;48.044;14.416;2023-12-20T13:07:39;6.40;99.90
38359;DHT22;42072;48.044;14.416;2023-12-20T13:10:06;6.30;99.90
38359;DHT22;42072;48.044;14.416;2023-12-20T13:12:33;6.30;99.90
38359;DHT22;42072;48.044;14.416;2023-12-20T13:15:00;6.20;99.90
38359;DHT22;42072;48.044;14.416;2023-12-20T13:17:28;6.20;99.90
38359;DHT22;42072;48.044;14.416;2023-12-20T13:19:58;6.10;99.90
38359;DHT22;42072;48.044;14.416;2023-12-20T13:22:26;6.10;1.00
38359;DHT22;42072;48.044;14.416;2023-12-20T13:24:53;6.10;1.00
38359;DHT22;42072;48.044;14.416;2023-12-20T13:27:20;6.10;1.00
38359;DHT22;42072;48.044;14.416;2023-12-20T13:29:48;6.00;1.00
38359;DHT22;42072;48.044;14.416;2023-12-20T13:32:15;6.00;1.00
38359;DHT22;42072;48.044;14.416;2023-12-20T13:34:42;5.90;1.00
38359;DHT22;42072;48.044;14.416;2023-12-20T13:37:09;6.00;1.00
38359;DHT22;42072;48.044;14.416;2023-12-20T13:39:36;5.90;1.00
38359;DHT22;42072;48.044;14.416;2023-12-20T13:42:03;5.90;1.00
38359;DHT22;42072;48.044;14.416;2023-12-20T13:44:30;6.10;1.00
38359;DHT22;42072;48.044;14.416;2023-12-20T13:46:57;6.10;1.00
38359;DHT22;42072;48.044;14.416;2023-12-20T13:49:25;6.10;1.00
38359;DHT22;42072;48.044;14.416;2023-12-20T13:51:53;6.10;1.00
38359;DHT22;42072;48.044;14.416;2023-12-20T13:54:21;6.20;1.00
38359;DHT22;42072;48.044;14.416;2023-12-20T13:56:49;6.20;1.00
38359;DHT22;42072;48.044;14.416;2023-12-20T13:59:34;6.20;1.00
38359;DHT22;42072;48.044;14.416;2023-12-20T14:02:02;6.20;99.90
38359;DHT22;42072;48.044;14.416;2023-12-20T14:04:31;6.10;99.90
38359;DHT22;42072;48.044;14.416;2023-12-20T14:07:09;6.00;1.00
38359;DHT22;42072;48.044;14.416;2023-12-20T14:09:39;5.90;1.00
38359;DHT22;42072;48.044;14.416;2023-12-20T14:12:07;5.80;1.00
38359;DHT22;42072;48.044;14.416;2023-12-20T14:14:35;5.70;1.00
38359;DHT22;42072;48.044;14.416;2023-12-20T14:17:03;5.70;1.00
38359;DHT22;42072;48.044;14.416;2023-12-20T14:19:30;5.70;1.00
38359;DHT22;42072;48.044;14.416;2023-12-20T14:21:58;5.80;1.00
38359;DHT22;42072;48.044;14.416;2023-12-20T14:24:28;5.80;1.00
38359;DHT22;42072;48.044;14.416;2023-12-20T14:26:55;5.80;1.00
38359;DHT22;42072;48.044;14.416;2023-12-20T14:29:22;5.90;1.00
38359;DHT22;42072;48.044;14.416;2023-12-20T14:31:52;5.90;1.00
38359;DHT22;42072;48.044;14.416;2023-12-20T14:34:20;5.90;1.00
38359;DHT22;42072;48.044;14.416;2023-12-20T14:36:47;5.90;1.00
38359;DHT22;42072;48.044;14.416;2023-12-20T14:39:14;5.90;1.00
38359;DHT22;42072;48.044;14.416;2023-12-20T14:41:42;6.00;1.00
38359;DHT22;42072;48.044;14.416;2023-12-20T14:44:09;6.00;1.00
38359;DHT22;42072;48.044;14.416;2023-12-20T14:46:36;6.10;99.90
38359;DHT22;42072;48.044;14.416;2023-12-20T14:49:08;6.00;99.90
38359;DHT22;42072;48.044;14.416;2023-12-20T14:51:35;6.00;99.90
38359;DHT22;42072;48.044;14.416;2023-12-20T14:54:04;6.10;99.90
38359;DHT22;42072;48.044;14.416;2023-12-20T14:56:33;6.00;99.90
38359;DHT22;42072;48.044;14.416;2023-12-20T14:59:00;6.10;99.90
38359;DHT22;42072;48.044;14.416;2023-12-20T15:01:29;6.10;99.90
38359;DHT22;42072;48.044;14.416;2023-12-20T15:03:58;6.10;99.90
38359;DHT22;42072;48.044;14.416;2023-12-20T15:06:25;6.00;99.90
38359;DHT22;42072;48.044;14.416;2023-12-20T15:08:53;6.00;99.90
38359;DHT22;42072;48.044;14.416;2023-12-20T15:11:20;6.00;99.90
38359;DHT22;42072;48.044;14.416;2023-12-20T15:13:47;5.90;99.90
38359;DHT22;42072;48.044;14.416;2023-12-20T15:16:22;5.90;99.90
38359;DHT22;42072;48.044;14.416;2023-12-20T15:18:49;5.80;99.90
38359;DHT22;42072;48.044;14.416;2023-12-20T15:21:19;5.80;1.00
38359;DHT22;42072;48.044;14.416;2023-12-20T15:23:48;5.80;1.00
38359;DHT22;42072;48.044;14.416;2023-12-20T15:26:21;5.80;1.00
38359;DHT22;42072;48.044;14.416;2023-12-20T15:28:48;5.80;99.90
38359;DHT22;42072;48.044;14.416;2023-12-20T15:31:15;5.80;99.90
38359;DHT22;42072;48.044;14.416;2023-12-20T15:33:43;5.80;99.90
38359;DHT22;42072;48.044;14.416;2023-12-20T15:36:10;5.80;99.90
38359;DHT22;42072;48.044;14.416;2023-12-20T15:38:37;5.70;99.90
38359;DHT22;42072;48.044;14.416;2023-12-20T15:41:05;5.60;99.90
38359;DHT22;42072;48.044;14.416;2023-12-20T15:43:32;5.50;99.90